createdAt,value
2019-05-29T04:19:01.450Z,19.35
2019-05-29T04:21:34.195Z,19.45
2019-05-29T04:24:07.531Z,19.64
2019-05-29T04:26:40.738Z,19.91
2019-05-29T04:29:12.979Z,20.14
2019-05-29T04:31:45.144Z,20.36
2019-05-29T04:34:17.364Z,20.53
2019-05-29T04:36:49.570Z,20.71
2019-05-29T04:39:21.667Z,20.93
2019-05-29T04:41:53.873Z,21.06
2019-05-29T04:44:26.226Z,21.17
2019-05-29T04:47:10.569Z,21.29
2019-05-29T04:49:33.812Z,21.51
2019-05-29T04:52:06.068Z,21.77
2019-05-29T04:54:40.034Z,21.92
2019-05-29T04:57:12.180Z,22.12
2019-05-29T04:59:44.322Z,22.28
2019-05-29T05:02:16.570Z,22.33
2019-05-29T05:04:48.779Z,22.43
2019-05-29T05:07:20.982Z,22.62
2019-05-29T05:09:53.173Z,22.72
2019-05-29T05:12:25.365Z,22.89
2019-05-29T05:14:57.652Z,23.00
2019-05-29T05:17:31.728Z,23.16
2019-05-29T05:20:05.032Z,23.22
2019-05-29T05:22:38.202Z,23.27
2019-05-29T05:25:10.792Z,23.35
2019-05-29T05:27:42.976Z,23.50
2019-05-29T05:30:16.154Z,23.59
2019-05-29T05:32:48.426Z,23.69
2019-05-29T05:35:20.628Z,23.82
2019-05-29T05:37:52.813Z,23.94
2019-05-29T05:40:25.193Z,23.98
2019-05-29T05:42:57.287Z,24.06
2019-05-29T05:45:35.101Z,24.12
2019-05-29T05:48:17.195Z,24.22
2019-05-29T05:50:49.308Z,24.28
2019-05-29T05:53:21.543Z,24.38
2019-05-29T05:55:53.799Z,24.43
2019-05-29T05:58:26.012Z,24.47
2019-05-29T06:00:58.222Z,24.46
2019-05-29T06:03:30.283Z,24.53
2019-05-29T06:06:03.554Z,24.56
2019-05-29T06:08:36.149Z,24.51
2019-05-29T06:11:08.345Z,24.60
2019-05-29T06:13:40.703Z,24.51
2019-05-29T06:16:12.863Z,24.62
2019-05-29T06:18:45.029Z,24.62
2019-05-29T06:21:17.069Z,24.69
2019-05-29T06:23:49.255Z,24.65
2019-05-29T06:26:21.379Z,24.75
2019-05-29T06:28:53.394Z,24.81
2019-05-29T06:31:27.259Z,24.85
2019-05-29T06:33:59.547Z,24.90
2019-05-29T06:36:31.730Z,24.89
2019-05-29T06:39:03.704Z,24.96
2019-05-29T06:41:35.754Z,25.06
2019-05-29T06:44:07.782Z,25.04
2019-05-29T06:46:40.538Z,25.11
2019-05-29T06:49:12.794Z,25.17
2019-05-29T06:51:44.811Z,25.29
2019-05-29T06:54:16.897Z,25.38
2019-05-29T06:56:48.916Z,25.46
2019-05-29T06:59:20.951Z,25.59
2019-05-29T07:01:53.469Z,25.50
2019-05-29T07:04:25.688Z,25.51
2019-05-29T07:06:57.814Z,25.59
2019-05-29T07:09:30.052Z,25.67
2019-05-29T07:12:04.246Z,25.65
2019-05-29T07:14:36.414Z,25.71
2019-05-29T07:17:08.509Z,25.84
2019-05-29T07:19:53.949Z,25.94
2019-05-29T07:22:14.471Z,25.94
2019-05-29T07:24:47.013Z,25.96
2019-05-29T07:27:19.313Z,25.98
2019-05-29T07:29:51.320Z,26.01
2019-05-29T07:32:23.506Z,25.97
2019-05-29T07:35:03.049Z,26.09
2019-05-29T07:37:29.294Z,26.15
2019-05-29T07:40:01.280Z,26.18
2019-05-29T07:42:33.402Z,26.24
2019-05-29T07:45:07.706Z,26.33
2019-05-29T07:47:40.401Z,26.36
2019-05-29T07:50:28.446Z,26.40
2019-05-29T07:53:00.581Z,26.41
2019-05-29T07:55:32.629Z,26.50
2019-05-29T07:58:04.890Z,26.48
2019-05-29T08:00:56.332Z,26.54
2019-05-29T08:03:10.659Z,26.55
2019-05-29T08:05:46.157Z,26.61
2019-05-29T08:08:16.741Z,26.72
2019-05-29T08:10:49.726Z,26.73
2019-05-29T08:13:21.759Z,26.81
2019-05-29T08:16:02.379Z,26.77
2019-05-29T08:18:27.563Z,26.77
2019-05-29T08:21:36.896Z,26.87
2019-05-29T08:23:51.377Z,26.93
2019-05-29T08:26:26.570Z,26.90
2019-05-29T08:28:58.761Z,26.88
2019-05-29T08:31:30.982Z,26.85
2019-05-29T08:34:03.079Z,26.95
2019-05-29T08:36:35.363Z,27.04
2019-05-29T08:39:08.392Z,27.10
2019-05-29T08:41:40.444Z,27.18
2019-05-29T08:44:12.562Z,27.23
2019-05-29T08:47:01.498Z,27.24
2019-05-29T08:49:18.553Z,27.19
2019-05-29T08:51:52.320Z,27.23
2019-05-29T08:54:28.290Z,27.31
2019-05-29T08:57:00.444Z,27.36
2019-05-29T08:59:34.791Z,27.45
2019-05-29T09:02:08.394Z,27.34
2019-05-29T09:04:40.477Z,27.23
2019-05-29T09:07:17.079Z,27.34
2019-05-29T09:09:51.280Z,27.43
2019-05-29T09:12:23.872Z,27.54
2019-05-29T09:14:57.425Z,27.52
2019-05-29T09:17:29.793Z,27.62
2019-05-29T09:20:02.039Z,27.69
2019-05-29T09:22:34.074Z,27.71
2019-05-29T09:25:06.358Z,27.71
2019-05-29T09:27:38.378Z,27.73
2019-05-29T09:30:10.348Z,27.78
2019-05-29T09:32:50.366Z,27.70
2019-05-29T09:35:18.410Z,27.70
2019-05-29T09:37:49.909Z,27.78
2019-05-29T09:40:23.109Z,27.80
2019-05-29T09:42:55.280Z,27.87
2019-05-29T09:45:27.259Z,27.81
2019-05-29T09:47:59.437Z,27.91
2019-05-29T09:50:48.869Z,27.98
2019-05-29T09:53:05.157Z,27.97
2019-05-29T09:55:38.874Z,27.90
2019-05-29T09:58:34.403Z,27.85
2019-05-29T10:01:22.928Z,28.00
2019-05-29T10:03:58.979Z,28.05
2019-05-29T10:06:29.653Z,28.14
2019-05-29T10:09:01.928Z,28.12
2019-05-29T10:22:18.884Z,28.31
2019-05-29T10:25:01.965Z,28.27
2019-05-29T11:06:25.490Z,28.81
2019-05-29T11:08:57.624Z,28.88
2019-05-29T11:11:29.561Z,28.89
2019-05-29T11:14:04.194Z,28.90
2019-05-29T11:16:39.744Z,28.89
2019-05-29T11:22:41.350Z,28.94
2019-05-29T11:33:12.238Z,28.89
2019-05-29T11:58:37.754Z,29.19
2019-05-29T12:22:08.347Z,29.00
2019-05-29T12:24:42.567Z,28.87
2019-05-29T12:27:14.711Z,29.00
2019-05-29T12:29:46.846Z,29.03
2019-05-29T12:32:18.955Z,29.10
2019-05-29T12:34:54.114Z,29.00
2019-05-29T12:37:29.850Z,29.00
2019-05-29T12:40:13.204Z,28.93
2019-05-29T12:42:46.418Z,28.89
2019-05-29T12:45:18.420Z,29.08
2019-05-29T12:47:50.443Z,29.08
2019-05-29T12:50:29.170Z,29.20
2019-05-29T12:53:01.807Z,29.13
2019-05-29T12:55:34.234Z,29.13
2019-05-29T12:58:06.309Z,29.24
2019-05-29T13:00:38.425Z,29.36
2019-05-29T13:03:10.469Z,29.46
2019-05-29T13:05:42.578Z,29.34
2019-05-29T13:08:14.689Z,29.24
2019-05-29T13:10:56.196Z,29.02
2019-05-29T13:13:30.773Z,29.00
2019-05-29T13:16:05.042Z,28.98
2019-05-29T13:18:37.510Z,28.93
2019-05-29T13:21:09.592Z,28.86
2019-05-29T13:23:45.250Z,28.83
2019-05-29T13:26:15.826Z,28.91
2019-05-29T13:28:47.827Z,28.91
2019-05-29T13:34:20.708Z,29.24
2019-05-29T13:40:10.831Z,29.56
2019-05-29T13:43:18.949Z,29.53
2019-05-29T14:43:13.680Z,29.79
2019-05-29T14:45:44.121Z,29.77
2019-05-29T14:48:16.238Z,29.77
2019-05-29T14:50:48.389Z,29.90
2019-05-29T14:53:20.420Z,29.81
2019-05-29T14:55:52.502Z,29.81
2019-05-29T15:11:51.899Z,29.66
2019-05-29T15:14:23.956Z,29.66
2019-05-29T15:17:05.054Z,29.75
2019-05-29T15:19:37.384Z,29.80
2019-05-29T15:25:18.309Z,29.91
2019-05-29T15:27:42.562Z,29.89
2019-05-29T15:30:20.807Z,29.90
2019-05-29T15:32:48.945Z,29.91
2019-05-29T15:35:23.695Z,29.84
2019-05-29T15:37:56.122Z,29.84
2019-05-29T15:40:28.499Z,29.75
2019-05-29T15:43:06.803Z,29.75
2019-05-29T15:45:41.578Z,29.75
2019-05-29T15:48:18.143Z,29.75
2019-05-29T15:50:51.478Z,29.73
2019-05-29T15:53:23.741Z,29.53
2019-05-29T15:55:57.881Z,29.53
2019-05-29T15:58:35.896Z,29.39
2019-05-29T16:01:09.623Z,29.37
2019-05-29T16:03:41.918Z,29.34
2019-05-29T16:06:14.091Z,29.25
2019-05-29T16:08:46.159Z,29.09
2019-05-29T16:11:18.842Z,28.88
2019-05-29T16:13:51.060Z,28.88
2019-05-29T16:16:23.187Z,28.79
2019-05-29T16:18:55.359Z,28.72
2019-05-29T16:21:27.582Z,28.50
2019-05-29T16:23:59.705Z,28.42
2019-05-29T16:26:31.935Z,28.39
2019-05-29T16:29:04.046Z,28.29
2019-05-29T16:31:36.251Z,28.23
2019-05-29T16:34:08.684Z,28.11
2019-05-29T16:36:40.873Z,28.09
2019-05-29T16:39:13.529Z,28.03
2019-05-29T16:41:45.760Z,27.86
2019-05-29T16:44:18.277Z,27.80
2019-05-29T16:46:51.538Z,27.80
2019-05-29T16:49:23.707Z,27.77
2019-05-29T16:51:55.904Z,27.65
2019-05-29T16:54:32.808Z,27.53
2019-05-29T16:57:05.786Z,27.47
2019-05-29T17:06:53.530Z,27.09
2019-05-29T17:09:30.160Z,26.96
2019-05-29T17:12:23.059Z,26.97
2019-05-29T17:15:00.176Z,26.93
2019-05-29T17:17:44.289Z,26.90
2019-05-29T17:20:46.362Z,26.82
2019-05-29T17:26:18.920Z,26.66
2019-05-29T17:28:51.180Z,26.63
2019-05-29T17:38:37.822Z,26.39
2019-05-29T17:41:26.142Z,26.22
2019-05-29T17:44:05.224Z,26.10
2019-05-29T17:46:40.740Z,26.13
2019-05-29T17:49:13.326Z,26.10
2019-05-29T17:51:45.612Z,26.10
2019-05-29T17:54:17.968Z,26.08
2019-05-29T17:56:50.246Z,26.07
2019-05-29T17:59:22.545Z,26.00
2019-05-29T18:01:54.862Z,25.98
2019-05-29T18:04:27.067Z,25.92
2019-05-29T18:06:59.287Z,25.90
2019-05-29T18:09:31.858Z,25.82
2019-05-29T18:12:04.071Z,25.82
2019-05-29T18:14:36.323Z,25.75
2019-05-29T18:17:08.599Z,25.70
2019-05-29T18:19:40.809Z,25.65
2019-05-29T18:22:12.954Z,25.58
2019-05-29T18:24:45.183Z,25.57
2019-05-29T18:27:17.935Z,25.51
2019-05-29T18:29:51.686Z,25.49
2019-05-29T18:32:24.491Z,25.50
2019-05-29T19:28:34.918Z,24.64
2019-05-29T19:31:08.648Z,24.60
2019-05-29T19:33:43.685Z,24.59
2019-05-29T19:36:15.912Z,24.54
2019-05-29T19:38:48.090Z,24.55
2019-05-29T19:41:20.383Z,24.50
2019-05-29T19:43:52.609Z,24.46
2019-05-29T19:46:28.549Z,24.39
2019-05-29T19:49:00.963Z,24.36
2019-05-29T19:51:33.526Z,24.29
2019-05-29T19:54:06.728Z,24.27
2019-05-29T19:56:43.560Z,24.29
2019-05-29T19:59:15.748Z,24.27
2019-05-29T20:01:48.245Z,24.22
2019-05-29T20:04:23.400Z,24.19
2019-05-29T20:06:55.478Z,24.10
2019-05-29T20:09:27.663Z,24.16
2019-05-29T20:12:01.329Z,24.12
2019-05-29T20:14:35.792Z,24.10
2019-05-29T20:17:08.035Z,24.01
2019-05-29T20:19:41.024Z,23.99
2019-05-29T20:22:13.208Z,23.92
2019-05-29T20:24:45.264Z,23.88
2019-05-29T20:27:17.255Z,23.77
2019-05-29T20:29:49.391Z,23.72
2019-05-29T20:32:21.385Z,23.64
2019-05-29T20:34:53.514Z,23.57
2019-05-29T20:37:25.582Z,23.48
2019-05-29T20:39:58.873Z,23.38
2019-05-29T20:42:32.110Z,23.34
2019-05-29T20:45:06.744Z,23.23
2019-05-29T20:47:40.111Z,23.17
2019-05-29T20:50:12.444Z,23.16
2019-05-29T20:52:44.509Z,23.17
2019-05-29T20:55:16.509Z,23.25
2019-05-29T20:57:48.717Z,23.31
2019-05-29T21:00:20.844Z,23.35
2019-05-29T21:02:52.937Z,23.38
2019-05-29T21:05:25.006Z,23.39
2019-05-29T21:07:57.197Z,23.38
2019-05-29T21:10:29.177Z,23.33
2019-05-29T21:13:01.264Z,23.30
2019-05-29T21:15:33.598Z,23.23
2019-05-29T21:18:05.875Z,23.23
2019-05-29T21:20:38.326Z,23.16
2019-05-29T21:23:10.549Z,23.12
2019-05-29T21:25:42.904Z,23.03
2019-05-29T21:28:15.124Z,22.98
2019-05-29T21:30:47.129Z,22.88
2019-05-29T21:33:19.191Z,22.74
2019-05-29T21:35:51.197Z,22.62
2019-05-29T21:38:23.147Z,22.46
2019-05-29T21:40:56.087Z,22.39
2019-05-29T21:43:28.151Z,22.40
2019-05-29T21:46:00.129Z,22.42
2019-05-29T21:48:32.359Z,22.47
2019-05-29T21:51:04.458Z,22.52
2019-05-29T21:53:37.258Z,22.60
2019-05-29T21:56:09.399Z,22.61
2019-05-29T21:58:58.998Z,22.58
2019-05-29T22:01:15.526Z,22.62
2019-05-29T22:03:48.828Z,22.61
2019-05-29T22:06:22.232Z,22.60
2019-05-29T22:08:54.216Z,22.54
2019-05-29T22:11:26.339Z,22.47
2019-05-29T22:13:58.601Z,22.31
2019-05-29T22:16:30.772Z,22.14
2019-05-29T22:19:04.296Z,22.01
2019-05-29T22:21:36.550Z,21.87
2019-05-29T22:24:08.693Z,21.75
2019-05-29T22:26:40.745Z,21.68
2019-05-29T22:29:18.203Z,21.57
2019-05-29T22:31:46.593Z,21.62
2019-05-29T22:34:18.818Z,21.64
2019-05-29T22:36:51.426Z,21.68
2019-05-29T22:39:23.766Z,21.65
2019-05-29T22:41:57.592Z,21.53
2019-05-29T22:44:29.982Z,21.49
2019-05-29T22:47:02.130Z,21.46
2019-05-29T22:49:35.292Z,21.38
2019-05-29T22:52:07.579Z,21.39
2019-05-29T22:54:39.894Z,21.42
2019-05-29T22:57:12.167Z,21.47
2019-05-29T22:59:44.151Z,21.42
2019-05-29T23:02:16.239Z,21.37
2019-05-29T23:04:48.475Z,21.26
2019-05-29T23:07:20.699Z,21.12
2019-05-29T23:09:54.232Z,20.99
2019-05-29T23:12:26.652Z,20.86
2019-05-29T23:15:00.641Z,20.79
2019-05-29T23:17:34.068Z,20.74
2019-05-29T23:20:09.244Z,20.68
2019-05-29T23:22:41.640Z,20.65
2019-05-29T23:25:13.896Z,20.60
2019-05-29T23:27:46.082Z,20.58
2019-05-29T23:30:18.254Z,20.54
2019-05-29T23:32:50.801Z,20.53
2019-05-29T23:35:23.048Z,20.50
2019-05-29T23:37:55.251Z,20.54
2019-05-29T23:40:27.475Z,20.56
2019-05-29T23:42:59.647Z,20.52
2019-05-29T23:45:31.927Z,20.50
2019-05-29T23:48:04.081Z,20.47
2019-05-29T23:50:37.307Z,20.43
2019-05-29T23:53:09.888Z,20.41
2019-05-29T23:55:42.179Z,20.45
2019-05-29T23:58:14.324Z,20.42
